sensor_id;sensor_type;location;lat;lon;timestamp;temperature;humidity
37560;DHT22;23398;50.928;7.084;2023-04-30T00:02:09;9.90;87.30
37560;DHT22;23398;50.928;7.084;2023-04-30T00:04:35;9.90;87.80
37560;DHT22;23398;50.928;7.084;2023-04-30T00:07:01;9.90;87.90
37560;DHT22;23398;50.928;7.084;2023-04-30T00:09:27;9.80;87.90
37560;DHT22;23398;50.928;7.084;2023-04-30T00:11:52;9.80;87.60
37560;DHT22;23398;50.928;7.084;2023-04-30T00:14:18;9.70;87.10
37560;DHT22;23398;50.928;7.084;2023-04-30T00:16:43;9.70;86.80
37560;DHT22;23398;50.928;7.084;2023-04-30T00:19:09;9.70;86.80
37560;DHT22;23398;50.928;7.084;2023-04-30T00:21:34;9.60;86.60
37560;DHT22;23398;50.928;7.084;2023-04-30T00:24:01;9.60;86.40
37560;DHT22;23398;50.928;7.084;2023-04-30T00:26:26;9.50;86.30
37560;DHT22;23398;50.928;7.084;2023-04-30T00:28:52;9.50;86.40
37560;DHT22;23398;50.928;7.084;2023-04-30T00:31:17;9.40;86.00
37560;DHT22;23398;50.928;7.084;2023-04-30T00:33:43;9.40;85.50
37560;DHT22;23398;50.928;7.084;2023-04-30T00:36:09;9.30;85.40
37560;DHT22;23398;50.928;7.084;2023-04-30T00:38:34;9.30;85.90
37560;DHT22;23398;50.928;7.084;2023-04-30T00:41:00;9.20;86.50
37560;DHT22;23398;50.928;7.084;2023-04-30T00:43:25;9.20;87.10
37560;DHT22;23398;50.928;7.084;2023-04-30T00:45:51;9.20;87.70
37560;DHT22;23398;50.928;7.084;2023-04-30T00:48:17;9.10;88.00
37560;DHT22;23398;50.928;7.084;2023-04-30T00:50:43;9.10;88.20
37560;DHT22;23398;50.928;7.084;2023-04-30T00:53:12;9.00;88.20
37560;DHT22;23398;50.928;7.084;2023-04-30T00:55:39;9.00;88.40
37560;DHT22;23398;50.928;7.084;2023-04-30T00:58:06;9.00;88.60
37560;DHT22;23398;50.928;7.084;2023-04-30T01:00:32;8.90;88.70
37560;DHT22;23398;50.928;7.084;2023-04-30T01:02:59;8.90;88.70
37560;DHT22;23398;50.928;7.084;2023-04-30T01:05:24;8.90;89.60
37560;DHT22;23398;50.928;7.084;2023-04-30T01:07:50;8.80;88.90
37560;DHT22;23398;50.928;7.084;2023-04-30T01:10:18;8.80;88.90
37560;DHT22;23398;50.928;7.084;2023-04-30T01:15:41;8.80;88.60
37560;DHT22;23398;50.928;7.084;2023-04-30T01:18:24;8.70;89.50
37560;DHT22;23398;50.928;7.084;2023-04-30T01:21:01;8.70;88.60
37560;DHT22;23398;50.928;7.084;2023-04-30T01:28:53;8.60;89.30
37560;DHT22;23398;50.928;7.084;2023-04-30T01:31:23;8.50;88.40
37560;DHT22;23398;50.928;7.084;2023-04-30T01:33:48;8.50;88.90
37560;DHT22;23398;50.928;7.084;2023-04-30T01:36:34;8.50;89.00
37560;DHT22;23398;50.928;7.084;2023-04-30T01:39:18;8.40;90.00
37560;DHT22;23398;50.928;7.084;2023-04-30T01:42:06;8.40;89.60
37560;DHT22;23398;50.928;7.084;2023-04-30T01:47:37;8.30;89.70
37560;DHT22;23398;50.928;7.084;2023-04-30T01:50:36;8.30;89.50
37560;DHT22;23398;50.928;7.084;2023-04-30T01:53:06;8.30;90.00
37560;DHT22;23398;50.928;7.084;2023-04-30T01:55:40;8.20;89.50
37560;DHT22;23398;50.928;7.084;2023-04-30T01:58:09;8.20;89.40
37560;DHT22;23398;50.928;7.084;2023-04-30T02:00:36;8.20;89.90
37560;DHT22;23398;50.928;7.084;2023-04-30T02:03:01;8.20;89.90
37560;DHT22;23398;50.928;7.084;2023-04-30T02:05:27;8.10;90.00
37560;DHT22;23398;50.928;7.084;2023-04-30T02:07:53;8.10;90.10
37560;DHT22;23398;50.928;7.084;2023-04-30T02:10:21;8.10;90.20
37560;DHT22;23398;50.928;7.084;2023-04-30T02:12:47;8.10;90.30
37560;DHT22;23398;50.928;7.084;2023-04-30T02:15:13;8.10;90.20
37560;DHT22;23398;50.928;7.084;2023-04-30T02:17:39;8.10;90.10
37560;DHT22;23398;50.928;7.084;2023-04-30T02:20:05;8.10;90.10
37560;DHT22;23398;50.928;7.084;2023-04-30T02:22:31;8.00;90.10
37560;DHT22;23398;50.928;7.084;2023-04-30T02:24:57;8.00;90.00
37560;DHT22;23398;50.928;7.084;2023-04-30T02:27:24;7.90;89.90
37560;DHT22;23398;50.928;7.084;2023-04-30T02:29:51;7.90;89.90
37560;DHT22;23398;50.928;7.084;2023-04-30T02:32:17;7.90;89.60
37560;DHT22;23398;50.928;7.084;2023-04-30T02:34:42;7.90;89.50
37560;DHT22;23398;50.928;7.084;2023-04-30T02:37:08;7.80;89.50
37560;DHT22;23398;50.928;7.084;2023-04-30T02:39:34;7.80;89.70
37560;DHT22;23398;50.928;7.084;2023-04-30T02:41:59;7.80;90.00
37560;DHT22;23398;50.928;7.084;2023-04-30T02:44:25;7.80;90.00
37560;DHT22;23398;50.928;7.084;2023-04-30T02:46:51;7.70;90.00
37560;DHT22;23398;50.928;7.084;2023-04-30T02:49:17;7.70;89.80
37560;DHT22;23398;50.928;7.084;2023-04-30T02:51:42;7.70;89.50
37560;DHT22;23398;50.928;7.084;2023-04-30T02:54:08;7.60;89.10
37560;DHT22;23398;50.928;7.084;2023-04-30T02:56:34;7.60;89.20
37560;DHT22;23398;50.928;7.084;2023-04-30T02:58:59;7.60;89.50
37560;DHT22;23398;50.928;7.084;2023-04-30T03:01:25;7.50;90.00
37560;DHT22;23398;50.928;7.084;2023-04-30T03:03:51;7.50;90.10
37560;DHT22;23398;50.928;7.084;2023-04-30T03:06:17;7.50;90.10
37560;DHT22;23398;50.928;7.084;2023-04-30T03:08:42;7.40;90.00
37560;DHT22;23398;50.928;7.084;2023-04-30T03:11:08;7.40;90.00
37560;DHT22;23398;50.928;7.084;2023-04-30T03:13:34;7.40;90.10
37560;DHT22;23398;50.928;7.084;2023-04-30T03:16:03;7.40;90.40
37560;DHT22;23398;50.928;7.084;2023-04-30T03:18:31;7.40;90.70
37560;DHT22;23398;50.928;7.084;2023-04-30T03:20:57;7.40;90.60
37560;DHT22;23398;50.928;7.084;2023-04-30T03:23:23;7.40;90.70
37560;DHT22;23398;50.928;7.084;2023-04-30T03:25:49;7.40;90.70
37560;DHT22;23398;50.928;7.084;2023-04-30T03:28:15;7.40;90.70
37560;DHT22;23398;50.928;7.084;2023-04-30T03:30:41;7.40;91.00
37560;DHT22;23398;50.928;7.084;2023-04-30T03:33:07;7.40;90.60
37560;DHT22;23398;50.928;7.084;2023-04-30T03:35:33;7.40;90.60
37560;DHT22;23398;50.928;7.084;2023-04-30T03:37:59;7.40;90.70
37560;DHT22;23398;50.928;7.084;2023-04-30T03:40:25;7.30;91.10
37560;DHT22;23398;50.928;7.084;2023-04-30T03:42:50;7.30;90.70
37560;DHT22;23398;50.928;7.084;2023-04-30T03:45:16;7.30;90.70
37560;DHT22;23398;50.928;7.084;2023-04-30T03:47:42;7.30;90.60
37560;DHT22;23398;50.928;7.084;2023-04-30T03:50:08;7.30;90.40
37560;DHT22;23398;50.928;7.084;2023-04-30T03:52:34;7.30;90.40
37560;DHT22;23398;50.928;7.084;2023-04-30T03:55:01;7.20;90.30
37560;DHT22;23398;50.928;7.084;2023-04-30T03:57:27;7.20;90.10
37560;DHT22;23398;50.928;7.084;2023-04-30T03:59:53;7.10;90.00
37560;DHT22;23398;50.928;7.084;2023-04-30T04:02:19;7.10;89.90
37560;DHT22;23398;50.928;7.084;2023-04-30T04:04:45;7.10;89.90
37560;DHT22;23398;50.928;7.084;2023-04-30T04:07:11;7.00;89.60
37560;DHT22;23398;50.928;7.084;2023-04-30T04:09:37;7.00;89.40
37560;DHT22;23398;50.928;7.084;2023-04-30T04:12:02;6.90;89.20
37560;DHT22;23398;50.928;7.084;2023-04-30T04:14:28;6.90;89.40
37560;DHT22;23398;50.928;7.084;2023-04-30T04:16:55;6.80;89.50
37560;DHT22;23398;50.928;7.084;2023-04-30T04:19:22;6.80;90.00
37560;DHT22;23398;50.928;7.084;2023-04-30T04:21:48;6.80;90.20
37560;DHT22;23398;50.928;7.084;2023-04-30T04:24:13;6.80;90.30
37560;DHT22;23398;50.928;7.084;2023-04-30T04:26:39;6.80;90.60
37560;DHT22;23398;50.928;7.084;2023-04-30T04:29:06;6.80;90.80
37560;DHT22;23398;50.928;7.084;2023-04-30T04:31:34;6.80;90.90
37560;DHT22;23398;50.928;7.084;2023-04-30T04:34:01;6.80;91.00
37560;DHT22;23398;50.928;7.084;2023-04-30T04:36:27;6.90;91.10
37560;DHT22;23398;50.928;7.084;2023-04-30T04:38:53;6.90;91.10
37560;DHT22;23398;50.928;7.084;2023-04-30T04:41:22;6.90;91.10
37560;DHT22;23398;50.928;7.084;2023-04-30T04:43:48;7.00;91.10
37560;DHT22;23398;50.928;7.084;2023-04-30T04:46:14;7.00;91.00
37560;DHT22;23398;50.928;7.084;2023-04-30T04:48:41;7.00;91.00
37560;DHT22;23398;50.928;7.084;2023-04-30T04:51:07;7.00;91.00
37560;DHT22;23398;50.928;7.084;2023-04-30T04:53:33;7.10;91.10
37560;DHT22;23398;50.928;7.084;2023-04-30T04:55:58;7.10;91.20
37560;DHT22;23398;50.928;7.084;2023-04-30T04:58:24;7.10;91.20
37560;DHT22;23398;50.928;7.084;2023-04-30T05:00:49;7.20;91.40
37560;DHT22;23398;50.928;7.084;2023-04-30T05:03:16;7.20;91.40
37560;DHT22;23398;50.928;7.084;2023-04-30T05:05:42;7.30;91.50
37560;DHT22;23398;50.928;7.084;2023-04-30T05:08:08;7.30;91.60
37560;DHT22;23398;50.928;7.084;2023-04-30T05:10:33;7.40;91.70
37560;DHT22;23398;50.928;7.084;2023-04-30T05:12:59;7.40;91.70
37560;DHT22;23398;50.928;7.084;2023-04-30T05:15:24;7.50;91.80
37560;DHT22;23398;50.928;7.084;2023-04-30T05:17:50;7.60;91.80
37560;DHT22;23398;50.928;7.084;2023-04-30T05:20:16;7.70;91.80
37560;DHT22;23398;50.928;7.084;2023-04-30T05:22:41;7.70;91.80
37560;DHT22;23398;50.928;7.084;2023-04-30T05:25:07;7.80;91.90
37560;DHT22;23398;50.928;7.084;2023-04-30T05:27:33;7.90;92.10
37560;DHT22;23398;50.928;7.084;2023-04-30T05:29:59;8.00;92.10
37560;DHT22;23398;50.928;7.084;2023-04-30T05:32:25;8.00;92.20
37560;DHT22;23398;50.928;7.084;2023-04-30T05:34:52;8.10;92.30
37560;DHT22;23398;50.928;7.084;2023-04-30T05:37:17;8.20;92.40
37560;DHT22;23398;50.928;7.084;2023-04-30T05:39:45;8.40;92.50
37560;DHT22;23398;50.928;7.084;2023-04-30T05:42:10;8.40;92.60
37560;DHT22;23398;50.928;7.084;2023-04-30T05:44:36;8.50;92.70
37560;DHT22;23398;50.928;7.084;2023-04-30T05:47:02;8.70;92.90
37560;DHT22;23398;50.928;7.084;2023-04-30T05:49:27;8.80;93.00
37560;DHT22;23398;50.928;7.084;2023-04-30T05:51:53;8.90;93.10
37560;DHT22;23398;50.928;7.084;2023-04-30T05:54:19;9.00;93.10
37560;DHT22;23398;50.928;7.084;2023-04-30T05:56:44;9.10;93.20
37560;DHT22;23398;50.928;7.084;2023-04-30T05:59:10;9.30;93.40
37560;DHT22;23398;50.928;7.084;2023-04-30T06:01:36;9.40;93.40
37560;DHT22;23398;50.928;7.084;2023-04-30T06:04:01;9.50;93.50
37560;DHT22;23398;50.928;7.084;2023-04-30T06:06:29;9.70;93.40
37560;DHT22;23398;50.928;7.084;2023-04-30T06:08:56;9.80;93.40
37560;DHT22;23398;50.928;7.084;2023-04-30T06:11:21;10.00;93.00
37560;DHT22;23398;50.928;7.084;2023-04-30T06:13:50;10.10;93.00
37560;DHT22;23398;50.928;7.084;2023-04-30T06:16:15;10.20;93.00
37560;DHT22;23398;50.928;7.084;2023-04-30T06:18:41;10.40;92.80
37560;DHT22;23398;50.928;7.084;2023-04-30T06:21:06;10.50;92.70
37560;DHT22;23398;50.928;7.084;2023-04-30T06:23:32;10.70;92.60
37560;DHT22;23398;50.928;7.084;2023-04-30T06:25:58;10.80;92.30
37560;DHT22;23398;50.928;7.084;2023-04-30T06:28:24;11.00;92.10
37560;DHT22;23398;50.928;7.084;2023-04-30T06:30:50;11.10;91.90
37560;DHT22;23398;50.928;7.084;2023-04-30T06:33:16;11.30;91.90
37560;DHT22;23398;50.928;7.084;2023-04-30T06:35:42;11.40;91.80
37560;DHT22;23398;50.928;7.084;2023-04-30T06:38:07;11.60;91.80
37560;DHT22;23398;50.928;7.084;2023-04-30T06:40:33;11.70;91.60
37560;DHT22;23398;50.928;7.084;2023-04-30T06:42:59;11.80;91.50
37560;DHT22;23398;50.928;7.084;2023-04-30T06:45:25;12.00;91.40
37560;DHT22;23398;50.928;7.084;2023-04-30T06:47:50;12.20;91.90
37560;DHT22;23398;50.928;7.084;2023-04-30T06:50:17;12.50;93.30
37560;DHT22;23398;50.928;7.084;2023-04-30T06:52:43;13.00;94.80
37560;DHT22;23398;50.928;7.084;2023-04-30T06:55:09;13.80;95.90
37560;DHT22;23398;50.928;7.084;2023-04-30T06:57:35;14.80;96.50
37560;DHT22;23398;50.928;7.084;2023-04-30T07:00:04;16.10;95.90
37560;DHT22;23398;50.928;7.084;2023-04-30T07:02:30;17.50;94.50
37560;DHT22;23398;50.928;7.084;2023-04-30T07:04:55;19.00;92.90
37560;DHT22;23398;50.928;7.084;2023-04-30T07:07:21;20.50;90.00
37560;DHT22;23398;50.928;7.084;2023-04-30T07:09:47;22.00;84.40
37560;DHT22;23398;50.928;7.084;2023-04-30T07:12:13;23.60;78.30
37560;DHT22;23398;50.928;7.084;2023-04-30T07:14:38;25.10;72.20
37560;DHT22;23398;50.928;7.084;2023-04-30T07:17:04;26.50;67.30
37560;DHT22;23398;50.928;7.084;2023-04-30T07:19:29;27.90;62.50
37560;DHT22;23398;50.928;7.084;2023-04-30T07:21:55;29.20;58.90
37560;DHT22;23398;50.928;7.084;2023-04-30T07:24:20;30.50;56.40
37560;DHT22;23398;50.928;7.084;2023-04-30T07:26:46;31.70;53.80
37560;DHT22;23398;50.928;7.084;2023-04-30T07:29:11;32.70;51.50
37560;DHT22;23398;50.928;7.084;2023-04-30T07:31:37;33.70;48.80
37560;DHT22;23398;50.928;7.084;2023-04-30T07:34:03;34.60;46.70
37560;DHT22;23398;50.928;7.084;2023-04-30T07:36:28;35.50;45.00
37560;DHT22;23398;50.928;7.084;2023-04-30T07:38:54;36.40;43.30
37560;DHT22;23398;50.928;7.084;2023-04-30T07:41:19;37.20;41.90
37560;DHT22;23398;50.928;7.084;2023-04-30T07:43:46;37.90;40.40
37560;DHT22;23398;50.928;7.084;2023-04-30T07:46:11;38.60;38.70
37560;DHT22;23398;50.928;7.084;2023-04-30T07:48:37;39.30;38.00
37560;DHT22;23398;50.928;7.084;2023-04-30T07:51:03;39.90;36.50
37560;DHT22;23398;50.928;7.084;2023-04-30T07:53:29;40.50;35.60
37560;DHT22;23398;50.928;7.084;2023-04-30T07:55:55;41.10;34.40
37560;DHT22;23398;50.928;7.084;2023-04-30T07:58:20;41.70;33.60
37560;DHT22;23398;50.928;7.084;2023-04-30T08:00:46;42.30;32.80
37560;DHT22;23398;50.928;7.084;2023-04-30T08:03:12;42.80;31.70
37560;DHT22;23398;50.928;7.084;2023-04-30T08:05:37;43.30;31.00
37560;DHT22;23398;50.928;7.084;2023-04-30T08:08:03;43.80;30.70
37560;DHT22;23398;50.928;7.084;2023-04-30T08:10:30;44.30;29.60
37560;DHT22;23398;50.928;7.084;2023-04-30T08:12:56;44.70;29.00
37560;DHT22;23398;50.928;7.084;2023-04-30T08:15:21;45.10;28.90
37560;DHT22;23398;50.928;7.084;2023-04-30T08:17:50;45.30;28.20
37560;DHT22;23398;50.928;7.084;2023-04-30T08:20:16;45.60;28.00
37560;DHT22;23398;50.928;7.084;2023-04-30T08:22:43;45.90;27.60
37560;DHT22;23398;50.928;7.084;2023-04-30T08:25:12;46.10;27.10
37560;DHT22;23398;50.928;7.084;2023-04-30T08:27:38;46.30;27.20
37560;DHT22;23398;50.928;7.084;2023-04-30T08:30:05;46.50;26.20
37560;DHT22;23398;50.928;7.084;2023-04-30T08:32:34;46.60;26.40
37560;DHT22;23398;50.928;7.084;2023-04-30T08:35:01;46.80;26.10
37560;DHT22;23398;50.928;7.084;2023-04-30T08:37:26;47.10;25.60
37560;DHT22;23398;50.928;7.084;2023-04-30T08:39:52;47.30;25.20
37560;DHT22;23398;50.928;7.084;2023-04-30T08:42:20;47.50;24.90
37560;DHT22;23398;50.928;7.084;2023-04-30T08:44:49;47.80;25.10
37560;DHT22;23398;50.928;7.084;2023-04-30T08:47:16;48.00;24.50
37560;DHT22;23398;50.928;7.084;2023-04-30T08:49:42;48.20;24.00
37560;DHT22;23398;50.928;7.084;2023-04-30T08:52:08;48.60;24.40
37560;DHT22;23398;50.928;7.084;2023-04-30T08:54:34;48.80;23.90
37560;DHT22;23398;50.928;7.084;2023-04-30T08:57:00;49.10;24.00
37560;DHT22;23398;50.928;7.084;2023-04-30T08:59:27;49.40;23.40
37560;DHT22;23398;50.928;7.084;2023-04-30T09:01:52;49.60;23.90
37560;DHT22;23398;50.928;7.084;2023-04-30T09:04:18;49.80;23.30
37560;DHT22;23398;50.928;7.084;2023-04-30T09:06:43;50.00;24.20
37560;DHT22;23398;50.928;7.084;2023-04-30T09:09:11;50.10;21.80
37560;DHT22;23398;50.928;7.084;2023-04-30T09:11:38;50.20;22.50
37560;DHT22;23398;50.928;7.084;2023-04-30T09:14:03;50.20;21.90
37560;DHT22;23398;50.928;7.084;2023-04-30T09:16:44;50.20;22.10
37560;DHT22;23398;50.928;7.084;2023-04-30T09:19:30;50.20;22.80
37560;DHT22;23398;50.928;7.084;2023-04-30T09:21:56;50.20;23.40
37560;DHT22;23398;50.928;7.084;2023-04-30T09:24:22;50.30;22.00
37560;DHT22;23398;50.928;7.084;2023-04-30T09:26:48;50.30;21.40
37560;DHT22;23398;50.928;7.084;2023-04-30T09:29:15;50.40;21.00
37560;DHT22;23398;50.928;7.084;2023-04-30T09:31:46;50.40;20.70
37560;DHT22;23398;50.928;7.084;2023-04-30T09:34:12;50.30;20.50
37560;DHT22;23398;50.928;7.084;2023-04-30T09:36:51;50.30;20.60
37560;DHT22;23398;50.928;7.084;2023-04-30T09:39:19;50.10;21.50
37560;DHT22;23398;50.928;7.084;2023-04-30T09:41:45;50.00;20.50
37560;DHT22;23398;50.928;7.084;2023-04-30T09:44:27;49.60;19.60
37560;DHT22;23398;50.928;7.084;2023-04-30T09:46:57;48.90;20.50
37560;DHT22;23398;50.928;7.084;2023-04-30T09:49:23;48.20;19.70
37560;DHT22;23398;50.928;7.084;2023-04-30T09:51:57;47.50;20.10
37560;DHT22;23398;50.928;7.084;2023-04-30T09:54:31;46.50;19.70
37560;DHT22;23398;50.928;7.084;2023-04-30T09:57:00;45.20;20.30
37560;DHT22;23398;50.928;7.084;2023-04-30T09:59:31;43.90;20.90
37560;DHT22;23398;50.928;7.084;2023-04-30T10:02:00;42.50;21.20
37560;DHT22;23398;50.928;7.084;2023-04-30T10:04:29;41.40;21.60
37560;DHT22;23398;50.928;7.084;2023-04-30T10:06:56;40.50;22.20
37560;DHT22;23398;50.928;7.084;2023-04-30T10:09:26;40.00;22.40
37560;DHT22;23398;50.928;7.084;2023-04-30T10:11:54;39.40;23.00
37560;DHT22;23398;50.928;7.084;2023-04-30T10:14:21;38.80;23.10
37560;DHT22;23398;50.928;7.084;2023-04-30T10:16:57;38.10;23.70
37560;DHT22;23398;50.928;7.084;2023-04-30T10:19:30;37.50;24.00
37560;DHT22;23398;50.928;7.084;2023-04-30T10:21:56;37.20;24.40
37560;DHT22;23398;50.928;7.084;2023-04-30T10:24:22;37.00;25.20
37560;DHT22;23398;50.928;7.084;2023-04-30T10:26:48;37.00;25.40
37560;DHT22;23398;50.928;7.084;2023-04-30T10:29:16;37.30;26.50
37560;DHT22;23398;50.928;7.084;2023-04-30T10:31:48;37.50;26.00
37560;DHT22;23398;50.928;7.084;2023-04-30T10:36:47;37.50;24.80
37560;DHT22;23398;50.928;7.084;2023-04-30T10:39:17;37.10;24.50
37560;DHT22;23398;50.928;7.084;2023-04-30T10:41:44;36.40;24.50
37560;DHT22;23398;50.928;7.084;2023-04-30T10:44:12;35.70;24.80
37560;DHT22;23398;50.928;7.084;2023-04-30T10:46:37;34.70;25.40
37560;DHT22;23398;50.928;7.084;2023-04-30T10:49:03;33.80;26.10
37560;DHT22;23398;50.928;7.084;2023-04-30T10:51:50;32.70;26.80
37560;DHT22;23398;50.928;7.084;2023-04-30T10:54:31;31.60;27.00
37560;DHT22;23398;50.928;7.084;2023-04-30T10:57:16;30.80;28.30
37560;DHT22;23398;50.928;7.084;2023-04-30T11:00:16;30.10;29.00
37560;DHT22;23398;50.928;7.084;2023-04-30T11:07:35;29.00;30.00
37560;DHT22;23398;50.928;7.084;2023-04-30T11:10:01;29.00;30.80
37560;DHT22;23398;50.928;7.084;2023-04-30T11:12:27;28.70;30.70
37560;DHT22;23398;50.928;7.084;2023-04-30T11:15:03;28.60;30.80
37560;DHT22;23398;50.928;7.084;2023-04-30T11:17:31;28.40;31.90
37560;DHT22;23398;50.928;7.084;2023-04-30T11:19:59;28.00;31.30
37560;DHT22;23398;50.928;7.084;2023-04-30T11:22:28;27.70;31.30
37560;DHT22;23398;50.928;7.084;2023-04-30T11:27:37;27.20;31.90
37560;DHT22;23398;50.928;7.084;2023-04-30T11:30:09;27.00;32.10
37560;DHT22;23398;50.928;7.084;2023-04-30T11:32:37;26.80;32.80
37560;DHT22;23398;50.928;7.084;2023-04-30T11:35:04;26.70;33.00
37560;DHT22;23398;50.928;7.084;2023-04-30T11:39:57;26.40;33.80
37560;DHT22;23398;50.928;7.084;2023-04-30T11:42:24;26.20;33.70
37560;DHT22;23398;50.928;7.084;2023-04-30T11:44:49;26.00;34.20
37560;DHT22;23398;50.928;7.084;2023-04-30T11:47:15;25.90;33.80
37560;DHT22;23398;50.928;7.084;2023-04-30T11:49:42;25.80;34.00
37560;DHT22;23398;50.928;7.084;2023-04-30T11:52:07;25.70;34.50
37560;DHT22;23398;50.928;7.084;2023-04-30T11:54:37;25.70;33.70
37560;DHT22;23398;50.928;7.084;2023-04-30T11:57:03;25.60;33.50
37560;DHT22;23398;50.928;7.084;2023-04-30T11:59:30;25.50;33.90
37560;DHT22;23398;50.928;7.084;2023-04-30T12:01:56;25.50;33.60
37560;DHT22;23398;50.928;7.084;2023-04-30T12:04:23;25.50;34.70
37560;DHT22;23398;50.928;7.084;2023-04-30T12:06:48;25.40;34.90
37560;DHT22;23398;50.928;7.084;2023-04-30T12:09:14;25.30;35.10
37560;DHT22;23398;50.928;7.084;2023-04-30T12:11:40;25.20;34.60
37560;DHT22;23398;50.928;7.084;2023-04-30T12:14:07;25.00;35.60
37560;DHT22;23398;50.928;7.084;2023-04-30T12:19:20;24.80;36.40
37560;DHT22;23398;50.928;7.084;2023-04-30T12:21:47;24.80;36.00
37560;DHT22;23398;50.928;7.084;2023-04-30T12:24:15;24.80;35.20
37560;DHT22;23398;50.928;7.084;2023-04-30T12:26:41;24.80;34.80
37560;DHT22;23398;50.928;7.084;2023-04-30T12:29:08;24.70;34.60
37560;DHT22;23398;50.928;7.084;2023-04-30T12:31:36;24.50;34.80
37560;DHT22;23398;50.928;7.084;2023-04-30T12:34:06;24.40;35.10
37560;DHT22;23398;50.928;7.084;2023-04-30T12:36:33;24.20;34.50
37560;DHT22;23398;50.928;7.084;2023-04-30T12:39:21;24.00;34.80
37560;DHT22;23398;50.928;7.084;2023-04-30T12:41:47;23.90;35.20
37560;DHT22;23398;50.928;7.084;2023-04-30T12:44:22;23.80;34.80
37560;DHT22;23398;50.928;7.084;2023-04-30T12:46:50;23.80;35.60
37560;DHT22;23398;50.928;7.084;2023-04-30T12:49:33;23.80;35.80
37560;DHT22;23398;50.928;7.084;2023-04-30T12:52:10;23.90;35.70
37560;DHT22;23398;50.928;7.084;2023-04-30T12:54:38;24.00;36.80
37560;DHT22;23398;50.928;7.084;2023-04-30T12:57:08;24.10;36.50
37560;DHT22;23398;50.928;7.084;2023-04-30T12:59:36;24.20;36.30
37560;DHT22;23398;50.928;7.084;2023-04-30T13:02:10;24.30;36.40
37560;DHT22;23398;50.928;7.084;2023-04-30T13:04:36;24.30;36.20
37560;DHT22;23398;50.928;7.084;2023-04-30T13:07:02;24.20;36.00
37560;DHT22;23398;50.928;7.084;2023-04-30T13:09:29;24.10;35.70
37560;DHT22;23398;50.928;7.084;2023-04-30T13:11:55;24.10;36.60
37560;DHT22;23398;50.928;7.084;2023-04-30T13:14:20;24.00;37.00
37560;DHT22;23398;50.928;7.084;2023-04-30T13:16:46;24.10;37.00
37560;DHT22;23398;50.928;7.084;2023-04-30T13:19:12;24.40;37.20
37560;DHT22;23398;50.928;7.084;2023-04-30T13:21:37;24.20;36.60
37560;DHT22;23398;50.928;7.084;2023-04-30T13:24:03;24.40;36.50
37560;DHT22;23398;50.928;7.084;2023-04-30T13:26:29;24.50;36.90
37560;DHT22;23398;50.928;7.084;2023-04-30T13:28:55;24.50;36.60
37560;DHT22;23398;50.928;7.084;2023-04-30T13:31:20;24.70;36.30
37560;DHT22;23398;50.928;7.084;2023-04-30T13:33:47;24.60;35.90
37560;DHT22;23398;50.928;7.084;2023-04-30T13:36:12;24.50;35.80
37560;DHT22;23398;50.928;7.084;2023-04-30T13:38:38;24.50;36.10
37560;DHT22;23398;50.928;7.084;2023-04-30T13:41:04;24.40;35.80
37560;DHT22;23398;50.928;7.084;2023-04-30T13:43:30;24.40;36.20
37560;DHT22;23398;50.928;7.084;2023-04-30T13:45:57;24.40;36.40
37560;DHT22;23398;50.928;7.084;2023-04-30T13:48:26;24.40;36.20
37560;DHT22;23398;50.928;7.084;2023-04-30T13:50:53;24.40;35.60
37560;DHT22;23398;50.928;7.084;2023-04-30T13:53:19;24.50;35.50
37560;DHT22;23398;50.928;7.084;2023-04-30T13:55:44;24.50;35.60
37560;DHT22;23398;50.928;7.084;2023-04-30T13:58:10;24.60;35.60
37560;DHT22;23398;50.928;7.084;2023-04-30T14:00:35;24.70;35.30
37560;DHT22;23398;50.928;7.084;2023-04-30T14:03:01;24.70;35.20
37560;DHT22;23398;50.928;7.084;2023-04-30T14:05:26;24.60;34.90
37560;DHT22;23398;50.928;7.084;2023-04-30T14:07:52;24.60;35.60
37560;DHT22;23398;50.928;7.084;2023-04-30T14:10:18;24.60;35.30
37560;DHT22;23398;50.928;7.084;2023-04-30T14:12:44;24.60;36.20
37560;DHT22;23398;50.928;7.084;2023-04-30T14:15:09;24.70;36.10
37560;DHT22;23398;50.928;7.084;2023-04-30T14:17:35;24.80;36.20
37560;DHT22;23398;50.928;7.084;2023-04-30T14:20:01;24.90;36.60
37560;DHT22;23398;50.928;7.084;2023-04-30T14:22:26;25.00;36.90
37560;DHT22;23398;50.928;7.084;2023-04-30T14:24:52;25.00;37.20
37560;DHT22;23398;50.928;7.084;2023-04-30T14:27:18;25.00;36.40
37560;DHT22;23398;50.928;7.084;2023-04-30T14:29:43;25.00;36.20
37560;DHT22;23398;50.928;7.084;2023-04-30T14:32:12;25.00;36.60
37560;DHT22;23398;50.928;7.084;2023-04-30T14:34:41;24.90;36.80
37560;DHT22;23398;50.928;7.084;2023-04-30T14:37:07;24.90;36.80
37560;DHT22;23398;50.928;7.084;2023-04-30T14:39:32;24.70;36.70
37560;DHT22;23398;50.928;7.084;2023-04-30T14:41:58;24.60;37.20
37560;DHT22;23398;50.928;7.084;2023-04-30T14:44:23;24.50;37.20
37560;DHT22;23398;50.928;7.084;2023-04-30T14:46:50;24.40;37.60
37560;DHT22;23398;50.928;7.084;2023-04-30T14:49:15;24.30;37.60
37560;DHT22;23398;50.928;7.084;2023-04-30T14:51:41;24.30;37.50
37560;DHT22;23398;50.928;7.084;2023-04-30T14:54:07;24.20;37.50
37560;DHT22;23398;50.928;7.084;2023-04-30T14:56:32;24.10;37.30
37560;DHT22;23398;50.928;7.084;2023-04-30T14:58:58;24.00;37.60
37560;DHT22;23398;50.928;7.084;2023-04-30T15:01:23;24.10;37.70
37560;DHT22;23398;50.928;7.084;2023-04-30T15:03:49;23.90;37.40
37560;DHT22;23398;50.928;7.084;2023-04-30T15:06:15;23.80;37.90
37560;DHT22;23398;50.928;7.084;2023-04-30T15:08:40;23.70;37.50
37560;DHT22;23398;50.928;7.084;2023-04-30T15:11:06;23.70;37.30
37560;DHT22;23398;50.928;7.084;2023-04-30T15:13:35;23.70;37.60
37560;DHT22;23398;50.928;7.084;2023-04-30T15:16:00;23.70;38.40
37560;DHT22;23398;50.928;7.084;2023-04-30T15:18:26;23.70;38.90
37560;DHT22;23398;50.928;7.084;2023-04-30T15:20:52;23.80;38.50
37560;DHT22;23398;50.928;7.084;2023-04-30T15:23:17;23.80;38.60
37560;DHT22;23398;50.928;7.084;2023-04-30T15:25:43;23.90;38.40
37560;DHT22;23398;50.928;7.084;2023-04-30T15:28:09;24.00;37.70
37560;DHT22;23398;50.928;7.084;2023-04-30T15:30:34;24.00;38.10
37560;DHT22;23398;50.928;7.084;2023-04-30T15:33:00;24.20;38.00
37560;DHT22;23398;50.928;7.084;2023-04-30T15:35:26;24.10;37.70
37560;DHT22;23398;50.928;7.084;2023-04-30T15:37:52;24.10;37.90
37560;DHT22;23398;50.928;7.084;2023-04-30T15:40:18;24.10;37.70
37560;DHT22;23398;50.928;7.084;2023-04-30T15:42:43;24.00;37.80
37560;DHT22;23398;50.928;7.084;2023-04-30T15:45:09;24.00;38.50
37560;DHT22;23398;50.928;7.084;2023-04-30T15:47:36;23.90;37.90
37560;DHT22;23398;50.928;7.084;2023-04-30T15:50:02;23.90;38.30
37560;DHT22;23398;50.928;7.084;2023-04-30T15:52:28;23.80;38.40
37560;DHT22;23398;50.928;7.084;2023-04-30T15:54:53;23.80;38.50
37560;DHT22;23398;50.928;7.084;2023-04-30T15:57:19;23.70;38.70
37560;DHT22;23398;50.928;7.084;2023-04-30T15:59:44;23.70;38.70
37560;DHT22;23398;50.928;7.084;2023-04-30T16:02:10;23.50;39.10
37560;DHT22;23398;50.928;7.084;2023-04-30T16:04:36;23.40;39.70